Time;durP1;ratioP1;P1;durP2;ratioP2;P2;SDS_P1;SDS_P2;PMS_P1;PMS_P2;Temp;Humidity;BMP_temperature;BMP_pressure;BME280_temperature;BME280_humidity;BME280_pressure;Samples;Min_cycle;Max_cycle;Signal;HPM_P1;HPM_P2
2021/04/07 00:00:18;;;;;;;2.80;2.50;;;;;;;;;;5074068;28;20033;-63
2021/04/07 00:02:44;;;;;;;2.80;2.30;;;;;;;;;;5072574;28;20509;-63
2021/04/07 00:05:21;;;;;;;3.72;2.50;;;;;;;;;;5073640;28;20031;-64
2021/04/07 00:07:50;;;;;;;4.40;2.60;;;;;;;;;;5073931;28;20035;-64
2021/04/07 00:10:17;;;;;;;3.13;2.50;;;;;;;;;;5073755;28;20380;-64
2021/04/07 00:12:44;;;;;;;4.20;2.60;;;;;;;;;;5073550;28;20027;-64
2021/04/07 00:15:14;;;;;;;2.90;2.35;;;;;;;;;;5073152;28;20395;-65
2021/04/07 00:17:40;;;;;;;4.88;2.40;;;;;;;;;;5073014;28;20028;-63
2021/04/07 00:20:08;;;;;;;4.13;2.60;;;;;;;;;;5073551;28;20097;-63
2021/04/07 00:22:34;;;;;;;3.33;2.50;;;;;;;;;;5073579;28;20066;-63
2021/04/07 00:25:00;;;;;;;5.00;2.25;;;;;;;;;;5073262;28;20028;-63
2021/04/07 00:27:28;;;;;;;4.07;2.30;;;;;;;;;;5073281;28;20044;-63
2021/04/07 00:29:54;;;;;;;3.30;2.50;;;;;;;;;;5073706;28;20506;-63
2021/04/07 00:32:20;;;;;;;2.60;2.30;;;;;;;;;;5073386;28;20021;-63
2021/04/07 00:34:46;;;;;;;3.13;2.40;;;;;;;;;;5072991;28;20029;-64
2021/04/07 00:37:12;;;;;;;3.05;2.40;;;;;;;;;;5073088;28;20036;-63
2021/04/07 00:39:39;;;;;;;4.40;2.50;;;;;;;;;;5073273;28;20036;-63
2021/04/07 00:42:06;;;;;;;3.42;2.50;;;;;;;;;;5073040;28;20055;-64
2021/04/07 00:44:32;;;;;;;3.15;2.33;;;;;;;;;;5071551;28;20020;-64
2021/04/07 00:46:58;;;;;;;3.40;2.50;;;;;;;;;;5073082;28;20045;-63
2021/04/07 00:49:25;;;;;;;3.72;2.38;;;;;;;;;;5073078;28;20031;-64
2021/04/07 00:51:52;;;;;;;3.10;2.45;;;;;;;;;;5072943;28;20398;-64
2021/04/07 00:54:18;;;;;;;5.32;2.38;;;;;;;;;;5072551;28;20024;-64
2021/04/07 00:56:45;;;;;;;3.10;2.40;;;;;;;;;;5073185;28;20029;-63
2021/04/07 00:59:21;;;;;;;3.03;2.40;;;;;;;;;;5072878;28;20023;-63
2021/04/07 01:01:47;;;;;;;2.47;2.28;;;;;;;;;;5072854;28;20476;-61
2021/04/07 01:04:14;;;;;;;3.55;2.38;;;;;;;;;;5072486;28;20383;-64
2021/04/07 01:06:43;;;;;;;2.58;2.30;;;;;;;;;;5072601;28;20025;-63
2021/04/07 01:09:09;;;;;;;3.22;2.67;;;;;;;;;;5071177;28;20107;-63
2021/04/07 01:11:36;;;;;;;3.45;2.47;;;;;;;;;;5072468;28;20020;-63
2021/04/07 01:14:02;;;;;;;2.60;2.28;;;;;;;;;;5071940;28;20024;-63
2021/04/07 01:16:28;;;;;;;2.83;2.40;;;;;;;;;;5072284;28;20493;-63
2021/04/07 01:18:54;;;;;;;2.90;2.60;;;;;;;;;;5071612;28;20067;-63
2021/04/07 01:21:21;;;;;;;4.95;2.40;;;;;;;;;;5052419;28;20032;-63
2021/04/07 01:23:48;;;;;;;4.13;2.25;;;;;;;;;;5067912;28;20164;-63
2021/04/07 01:26:14;;;;;;;4.57;2.53;;;;;;;;;;5070475;28;20547;-63
2021/04/07 01:28:41;;;;;;;3.42;2.50;;;;;;;;;;5072496;28;20077;-64
2021/04/07 01:31:07;;;;;;;3.45;2.85;;;;;;;;;;5072510;28;20028;-63
2021/04/07 01:33:33;;;;;;;2.50;2.20;;;;;;;;;;5072323;28;20031;-63
2021/04/07 01:35:59;;;;;;;3.30;2.42;;;;;;;;;;5072210;28;20109;-63
2021/04/07 01:38:26;;;;;;;3.25;2.20;;;;;;;;;;5072455;28;20052;-63
2021/04/07 01:40:52;;;;;;;3.20;2.50;;;;;;;;;;5072339;28;20459;-63
2021/04/07 01:43:19;;;;;;;4.38;2.80;;;;;;;;;;5072470;28;20017;-63
2021/04/07 01:45:46;;;;;;;2.50;2.30;;;;;;;;;;5071949;28;20483;-62
2021/04/07 01:48:13;;;;;;;2.67;2.10;;;;;;;;;;5072208;28;20029;-63
2021/04/07 01:50:40;;;;;;;3.13;2.30;;;;;;;;;;5072346;28;20029;-63
2021/04/07 01:53:06;;;;;;;2.67;2.08;;;;;;;;;;5072348;28;20028;-66
2021/04/07 01:55:32;;;;;;;3.03;2.40;;;;;;;;;;5072028;28;20108;-63
2021/04/07 01:57:58;;;;;;;8.75;2.72;;;;;;;;;;5072173;28;20028;-63
2021/04/07 02:00:24;;;;;;;2.40;2.20;;;;;;;;;;5072285;28;20035;-63
2021/04/07 02:02:51;;;;;;;2.75;2.50;;;;;;;;;;5070333;28;20382;-62
2021/04/07 02:05:17;;;;;;;2.80;2.40;;;;;;;;;;5072124;28;20017;-63
2021/04/07 02:07:44;;;;;;;2.95;2.20;;;;;;;;;;5072245;28;20483;-63
2021/04/07 02:10:11;;;;;;;2.65;2.20;;;;;;;;;;5072112;28;20483;-63
2021/04/07 02:12:37;;;;;;;2.58;2.38;;;;;;;;;;5071789;28;20029;-63
2021/04/07 02:15:16;;;;;;;4.55;1.90;;;;;;;;;;5072084;28;20103;-63
2021/04/07 02:17:42;;;;;;;3.75;2.22;;;;;;;;;;5071523;28;20371;-63
2021/04/07 02:20:09;;;;;;;3.45;2.10;;;;;;;;;;5071941;28;20017;-64
2021/04/07 02:22:36;;;;;;;3.88;2.42;;;;;;;;;;5074401;28;20058;-64
2021/04/07 02:25:02;;;;;;;2.75;2.30;;;;;;;;;;5075484;28;20024;-61
2021/04/07 02:27:28;;;;;;;2.70;2.30;;;;;;;;;;5075823;28;20033;-63
2021/04/07 02:29:55;;;;;;;3.55;2.17;;;;;;;;;;5075707;28;20116;-63
2021/04/07 02:32:22;;;;;;;2.83;2.20;;;;;;;;;;5075330;28;20025;-63
2021/04/07 02:34:48;;;;;;;3.72;2.30;;;;;;;;;;5075518;28;20035;-63
2021/04/07 02:37:16;;;;;;;4.60;1.98;;;;;;;;;;5075279;28;20049;-64
2021/04/07 02:39:43;;;;;;;2.67;2.30;;;;;;;;;;5075529;28;20027;-64
2021/04/07 02:42:09;;;;;;;2.70;2.10;;;;;;;;;;5075196;28;20020;-64
2021/04/07 02:44:36;;;;;;;3.95;3.00;;;;;;;;;;5075263;28;20050;-62
2021/04/07 02:47:02;;;;;;;3.50;2.25;;;;;;;;;;5075326;28;20025;-63
2021/04/07 02:49:28;;;;;;;3.13;2.17;;;;;;;;;;5075389;28;20024;-64
2021/04/07 02:51:55;;;;;;;3.72;2.20;;;;;;;;;;5074000;28;20372;-64
2021/04/07 02:54:21;;;;;;;3.90;2.20;;;;;;;;;;5074774;28;20060;-64
2021/04/07 02:56:48;;;;;;;2.28;2.08;;;;;;;;;;5073882;28;20028;-62
2021/04/07 02:59:14;;;;;;;3.33;2.20;;;;;;;;;;5075210;28;20025;-63
2021/04/07 03:01:40;;;;;;;3.28;2.17;;;;;;;;;;5075025;28;20017;-63
2021/04/07 03:04:07;;;;;;;4.53;2.20;;;;;;;;;;5074505;28;20036;-64
2021/04/07 03:06:33;;;;;;;4.30;2.08;;;;;;;;;;5075131;28;20035;-64
2021/04/07 03:08:59;;;;;;;2.85;2.10;;;;;;;;;;5075023;28;20029;-64
2021/04/07 03:11:28;;;;;;;2.97;2.20;;;;;;;;;;5073699;28;20021;-63
2021/04/07 03:13:55;;;;;;;3.33;2.22;;;;;;;;;;5073480;28;20074;-63
2021/04/07 03:16:21;;;;;;;2.10;1.90;;;;;;;;;;5074755;28;20467;-64
2021/04/07 03:18:47;;;;;;;2.40;2.20;;;;;;;;;;5074776;28;20046;-63
2021/04/07 03:21:13;;;;;;;2.38;2.10;;;;;;;;;;5074835;28;20024;-64
2021/04/07 03:23:39;;;;;;;2.88;2.00;;;;;;;;;;5073176;28;20031;-63
2021/04/07 03:26:05;;;;;;;3.17;2.28;;;;;;;;;;5074702;28;20467;-64
2021/04/07 03:28:32;;;;;;;2.22;2.03;;;;;;;;;;5074745;28;20036;-63
2021/04/07 03:30:58;;;;;;;2.70;2.40;;;;;;;;;;5074121;28;20031;-63
2021/04/07 03:33:33;;;;;;;2.08;1.70;;;;;;;;;;5074070;28;20020;-62
2021/04/07 03:36:00;;;;;;;2.80;2.28;;;;;;;;;;5072773;28;20496;-64
2021/04/07 03:38:26;;;;;;;3.00;2.03;;;;;;;;;;5074338;28;20414;-62
2021/04/07 03:40:53;;;;;;;2.90;2.55;;;;;;;;;;5074370;28;20025;-64
2021/04/07 03:43:20;;;;;;;2.33;1.95;;;;;;;;;;5073900;28;20025;-63
2021/04/07 03:45:56;;;;;;;2.90;2.50;;;;;;;;;;5073806;28;20027;-62
2021/04/07 03:48:32;;;;;;;2.45;2.25;;;;;;;;;;5074382;28;20053;-64
2021/04/07 03:50:58;;;;;;;;;;;;;;;;;;5074731;28;20029;-63
2021/04/07 03:53:24;;;;;;;;;;;;;;;;;;5074580;28;19998;-63
2021/04/07 03:55:51;;;;;;;3.42;2.30;;;;;;;;;;5073913;28;19958;-63
2021/04/07 03:58:18;;;;;;;2.67;2.03;;;;;;;;;;5073993;28;20024;-63
2021/04/07 04:00:44;;;;;;;2.40;2.20;;;;;;;;;;5073785;28;20028;-63
2021/04/07 04:03:10;;;;;;;3.05;2.60;;;;;;;;;;5073948;28;20024;-63
2021/04/07 04:05:37;;;;;;;3.90;2.00;;;;;;;;;;5073901;28;20021;-64
2021/04/07 04:08:04;;;;;;;3.95;2.20;;;;;;;;;;5073518;28;20078;-63
2021/04/07 04:10:30;;;;;;;2.72;2.10;;;;;;;;;;5073849;28;20081;-64
2021/04/07 04:12:56;;;;;;;2.30;2.00;;;;;;;;;;5073541;28;20020;-63
2021/04/07 04:15:23;;;;;;;4.53;2.20;;;;;;;;;;5073503;28;20063;-62
2021/04/07 04:17:49;;;;;;;2.75;1.90;;;;;;;;;;5073558;28;20032;-62
2021/04/07 04:20:16;;;;;;;2.65;1.95;;;;;;;;;;5073373;28;20025;-63
2021/04/07 04:22:43;;;;;;;3.65;2.05;;;;;;;;;;5073173;28;20028;-63
2021/04/07 04:25:16;;;;;;;2.42;2.22;;;;;;;;;;5073499;28;20027;-63
2021/04/07 04:27:43;;;;;;;2.40;1.92;;;;;;;;;;5073413;28;20099;-63
2021/04/07 04:30:10;;;;;;;2.97;2.25;;;;;;;;;;5073143;28;20020;-63
2021/04/07 04:32:37;;;;;;;2.40;2.20;;;;;;;;;;5073358;28;20052;-64
2021/04/07 04:35:03;;;;;;;2.38;1.95;;;;;;;;;;5072089;28;20037;-63
2021/04/07 04:37:30;;;;;;;2.60;1.90;;;;;;;;;;5073082;28;20048;-63
2021/04/07 04:39:56;;;;;;;4.57;2.17;;;;;;;;;;5073173;28;20371;-61
2021/04/07 04:42:22;;;;;;;2.30;1.88;;;;;;;;;;5071901;28;20024;-62
2021/04/07 04:44:48;;;;;;;2.10;1.90;;;;;;;;;;5073191;28;20027;-66
2021/04/07 04:47:14;;;;;;;2.75;2.10;;;;;;;;;;5073051;28;20517;-64
2021/04/07 04:49:41;;;;;;;2.13;1.90;;;;;;;;;;5072732;28;20039;-64
2021/04/07 04:52:07;;;;;;;3.13;2.05;;;;;;;;;;5072878;28;20424;-64
2021/04/07 04:54:33;;;;;;;2.60;2.22;;;;;;;;;;5072953;28;20029;-62
2021/04/07 04:56:59;;;;;;;3.38;2.25;;;;;;;;;;5072735;28;20021;-63
2021/04/07 04:59:25;;;;;;;4.80;2.15;;;;;;;;;;5072587;28;20029;-63
2021/04/07 05:01:51;;;;;;;2.80;2.22;;;;;;;;;;5072656;28;20021;-63
2021/04/07 05:04:18;;;;;;;2.63;2.10;;;;;;;;;;5072660;28;20090;-63
2021/04/07 05:06:44;;;;;;;2.10;1.80;;;;;;;;;;5073093;28;20395;-63
2021/04/07 05:09:10;;;;;;;2.85;2.08;;;;;;;;;;5071306;28;20020;-62
2021/04/07 05:11:36;;;;;;;3.58;2.50;;;;;;;;;;5072818;28;20017;-63
2021/04/07 05:14:03;;;;;;;2.53;1.90;;;;;;;;;;5072642;28;20020;-63
2021/04/07 05:16:30;;;;;;;3.03;2.30;;;;;;;;;;5072708;28;20496;-62
2021/04/07 05:18:56;;;;;;;3.58;2.20;;;;;;;;;;5072625;28;20077;-64
2021/04/07 05:21:22;;;;;;;2.50;2.30;;;;;;;;;;5072395;28;20024;-63
2021/04/07 05:23:48;;;;;;;2.22;1.88;;;;;;;;;;5072567;28;20021;-63
2021/04/07 05:26:14;;;;;;;2.83;1.75;;;;;;;;;;5072423;28;20047;-62
2021/04/07 05:28:41;;;;;;;3.17;2.17;;;;;;;;;;5072493;28;20029;-64
2021/04/07 05:31:08;;;;;;;2.58;2.00;;;;;;;;;;5072126;28;20036;-63
2021/04/07 05:33:36;;;;;;;3.35;2.30;;;;;;;;;;5072785;28;20051;-65
2021/04/07 05:36:03;;;;;;;3.35;2.10;;;;;;;;;;5072438;28;20142;-62
2021/04/07 05:38:29;;;;;;;2.50;2.20;;;;;;;;;;5072403;28;20123;-63
2021/04/07 05:40:56;;;;;;;2.35;1.95;;;;;;;;;;5071912;28;20044;-62
2021/04/07 05:43:23;;;;;;;2.65;2.20;;;;;;;;;;5072101;28;20039;-63
2021/04/07 05:45:49;;;;;;;2.67;2.33;;;;;;;;;;5072328;28;20023;-63
2021/04/07 05:48:16;;;;;;;2.90;2.33;;;;;;;;;;5072325;28;20025;-63
2021/04/07 05:50:44;;;;;;;2.55;2.33;;;;;;;;;;5072043;28;20025;-63
2021/04/07 05:53:10;;;;;;;2.55;2.20;;;;;;;;;;5072759;28;20021;-62
2021/04/07 05:55:37;;;;;;;2.97;2.13;;;;;;;;;;5076038;28;20111;-63
2021/04/07 05:58:05;;;;;;;2.95;2.10;;;;;;;;;;5076142;28;20028;-64
2021/04/07 06:00:31;;;;;;;2.15;1.92;;;;;;;;;;5075969;28;20046;-63
2021/04/07 06:02:58;;;;;;;2.08;1.83;;;;;;;;;;5076120;28;20025;-62
2021/04/07 06:05:27;;;;;;;2.72;2.10;;;;;;;;;;5076515;28;20024;-63
2021/04/07 06:07:53;;;;;;;2.70;2.00;;;;;;;;;;5076395;28;20029;-63
2021/04/07 06:10:19;;;;;;;3.17;1.90;;;;;;;;;;5075915;28;20100;-63
2021/04/07 06:12:45;;;;;;;4.30;1.88;;;;;;;;;;5075573;28;20039;-63
2021/04/07 06:15:12;;;;;;;2.25;1.92;;;;;;;;;;5076109;28;20048;-62
2021/04/07 06:17:40;;;;;;;2.83;2.10;;;;;;;;;;5075923;28;20037;-63
2021/04/07 06:20:07;;;;;;;2.25;2.00;;;;;;;;;;5075889;28;20052;-63
2021/04/07 06:22:34;;;;;;;2.95;2.25;;;;;;;;;;5075370;28;20028;-63
2021/04/07 06:25:00;;;;;;;3.30;2.17;;;;;;;;;;5075734;28;20100;-63
2021/04/07 06:27:27;;;;;;;2.30;2.10;;;;;;;;;;5075834;28;20089;-64
2021/04/07 06:29:53;;;;;;;2.28;2.00;;;;;;;;;;5075756;28;20061;-64
2021/04/07 06:32:19;;;;;;;2.45;2.10;;;;;;;;;;5075689;28;20032;-63
2021/04/07 06:34:45;;;;;;;2.30;1.98;;;;;;;;;;5075653;28;20048;-63
2021/04/07 06:37:12;;;;;;;2.33;2.05;;;;;;;;;;5075279;28;20071;-62
2021/04/07 06:39:38;;;;;;;2.35;2.13;;;;;;;;;;5074928;28;20163;-63
2021/04/07 06:42:06;;;;;;;3.58;2.10;;;;;;;;;;5075167;28;20104;-62
2021/04/07 06:44:32;;;;;;;2.40;2.20;;;;;;;;;;5075511;28;20021;-62
2021/04/07 06:46:58;;;;;;;3.28;2.17;;;;;;;;;;5075153;28;20020;-64
2021/04/07 06:49:26;;;;;;;2.22;2.03;;;;;;;;;;5064307;28;20028;-64
2021/04/07 06:51:55;;;;;;;2.22;2.03;;;;;;;;;;5059547;28;20051;-65
2021/04/07 06:54:25;;;;;;;2.20;2.00;;;;;;;;;;5065781;28;20613;-63
2021/04/07 06:56:51;;;;;;;3.58;2.20;;;;;;;;;;5068037;28;20475;-64
2021/04/07 06:59:17;;;;;;;6.57;2.20;;;;;;;;;;5063660;28;20033;-64
2021/04/07 07:01:44;;;;;;;2.38;2.00;;;;;;;;;;5059054;28;20025;-64
2021/04/07 07:04:10;;;;;;;3.05;2.13;;;;;;;;;;5062352;28;20163;-64
2021/04/07 07:06:36;;;;;;;2.88;2.10;;;;;;;;;;5063213;28;20115;-62
2021/04/07 07:09:17;;;;;;;3.75;1.90;;;;;;;;;;5064283;28;20028;-61
2021/04/07 07:11:46;;;;;;;2.00;1.80;;;;;;;;;;5066685;28;20518;-64
2021/04/07 07:14:16;;;;;;;6.40;2.50;;;;;;;;;;5062607;28;20037;-65
2021/04/07 07:16:46;;;;;;;2.83;1.90;;;;;;;;;;5064261;28;20668;-63
2021/04/07 07:19:25;;;;;;;3.30;1.90;;;;;;;;;;5070323;28;20029;-62
2021/04/07 07:21:52;;;;;;;6.18;2.05;;;;;;;;;;5070008;28;20052;-64
2021/04/07 07:24:30;;;;;;;2.20;1.90;;;;;;;;;;5070482;28;20097;-64
2021/04/07 07:26:57;;;;;;;2.35;2.03;;;;;;;;;;5065531;28;20017;-64
2021/04/07 07:29:27;;;;;;;3.03;2.03;;;;;;;;;;5072496;28;20024;-63
2021/04/07 07:31:57;;;;;;;2.85;2.15;;;;;;;;;;5067181;28;20379;-63
2021/04/07 07:34:27;;;;;;;2.70;2.13;;;;;;;;;;5058200;28;20029;-63
2021/04/07 07:36:54;;;;;;;4.97;2.60;;;;;;;;;;5076831;28;20147;-64
2021/04/07 07:39:24;;;;;;;3.47;2.20;;;;;;;;;;5063178;28;20025;-65
2021/04/07 07:41:51;;;;;;;3.55;1.95;;;;;;;;;;5079399;28;21808;-64
2021/04/07 07:44:17;;;;;;;3.03;1.83;;;;;;;;;;5063820;28;20033;-63
2021/04/07 07:46:45;;;;;;;2.17;1.98;;;;;;;;;;5062938;28;20556;-67
2021/04/07 07:49:19;;;;;;;2.03;1.80;;;;;;;;;;5064834;28;20093;-63
2021/04/07 07:51:46;;;;;;;2.60;2.00;;;;;;;;;;5065012;28;20656;-64
2021/04/07 07:54:13;;;;;;;3.08;1.90;;;;;;;;;;5063454;28;20024;-65
2021/04/07 07:56:40;;;;;;;4.82;2.08;;;;;;;;;;5060347;28;20028;-64
2021/04/07 07:59:06;;;;;;;2.88;1.90;;;;;;;;;;5064896;28;20028;-63
2021/04/07 08:01:43;;;;;;;3.28;1.90;;;;;;;;;;5063180;28;20020;-64
2021/04/07 08:04:09;;;;;;;2.92;2.00;;;;;;;;;;5059935;28;20020;-64
2021/04/07 08:06:35;;;;;;;2.10;1.90;;;;;;;;;;5078642;28;20056;-64
2021/04/07 08:09:02;;;;;;;3.20;2.00;;;;;;;;;;5068550;28;20512;-64
2021/04/07 08:11:28;;;;;;;2.70;1.70;;;;;;;;;;5069292;28;20043;-64
2021/04/07 08:13:55;;;;;;;2.70;1.92;;;;;;;;;;5069375;28;20024;-66
2021/04/07 08:16:21;;;;;;;2.60;1.83;;;;;;;;;;5067171;28;20175;-65
2021/04/07 08:18:48;;;;;;;4.32;2.03;;;;;;;;;;5068843;28;20036;-63
2021/04/07 08:21:18;;;;;;;2.90;2.10;;;;;;;;;;5069119;28;20046;-66
2021/04/07 08:23:45;;;;;;;2.85;1.70;;;;;;;;;;5068206;28;20502;-64
2021/04/07 08:26:12;;;;;;;2.03;1.67;;;;;;;;;;5065319;28;20039;-62
2021/04/07 08:28:40;;;;;;;2.42;1.88;;;;;;;;;;5064009;28;20391;-63
2021/04/07 08:31:07;;;;;;;2.05;1.83;;;;;;;;;;5064407;28;20036;-64
2021/04/07 08:33:34;;;;;;;3.67;1.90;;;;;;;;;;5066144;28;20431;-64
2021/04/07 08:36:00;;;;;;;3.15;2.10;;;;;;;;;;5069025;28;20027;-62
2021/04/07 08:38:33;;;;;;;3.35;1.80;;;;;;;;;;5064932;28;20044;-62
2021/04/07 08:41:12;;;;;;;2.22;1.90;;;;;;;;;;5064833;28;20363;-62
2021/04/07 08:43:39;;;;;;;2.58;1.90;;;;;;;;;;5058367;28;20029;-63
2021/04/07 08:46:12;;;;;;;2.75;1.90;;;;;;;;;;5066092;28;20535;-62
2021/04/07 08:48:39;;;;;;;2.63;2.30;;;;;;;;;;5065978;28;20405;-64
2021/04/07 08:51:09;;;;;;;3.30;2.28;;;;;;;;;;5060101;28;20040;-64
2021/04/07 08:53:39;;;;;;;4.15;2.30;;;;;;;;;;5064075;28;20032;-65
2021/04/07 08:56:10;;;;;;;3.28;2.30;;;;;;;;;;5060835;28;20021;-62
2021/04/07 08:58:48;;;;;;;4.60;2.38;;;;;;;;;;5066539;28;20494;-66
2021/04/07 09:01:18;;;;;;;4.38;2.42;;;;;;;;;;5071141;28;20502;-62
2021/04/07 09:03:45;;;;;;;2.88;2.38;;;;;;;;;;5063121;28;20040;-63
2021/04/07 09:06:14;;;;;;;3.08;2.33;;;;;;;;;;5076821;28;20386;-63
2021/04/07 09:08:52;;;;;;;2.55;2.25;;;;;;;;;;5066125;28;20524;-63
2021/04/07 09:11:38;;;;;;;3.92;2.78;;;;;;;;;;5065218;28;20395;-63
2021/04/07 09:14:05;;;;;;;5.03;3.13;;;;;;;;;;5065581;28;20493;-64
2021/04/07 09:16:36;;;;;;;4.65;3.33;;;;;;;;;;5065202;28;20047;-62
2021/04/07 09:19:31;;;;;;;4.82;3.15;;;;;;;;;;5062911;28;20039;-65
2021/04/07 09:21:59;;;;;;;4.90;3.40;;;;;;;;;;5048068;28;20047;-64
2021/04/07 09:24:29;;;;;;;4.93;3.17;;;;;;;;;;5067015;28;20360;-63
2021/04/07 09:26:59;;;;;;;4.82;3.15;;;;;;;;;;5064515;28;20027;-64
2021/04/07 09:29:25;;;;;;;5.45;3.08;;;;;;;;;;5064708;28;20024;-62
2021/04/07 09:31:52;;;;;;;5.20;3.15;;;;;;;;;;5062738;28;20033;-62
2021/04/07 09:34:19;;;;;;;3.90;2.97;;;;;;;;;;5065808;28;20073;-63
2021/04/07 09:36:47;;;;;;;4.20;2.83;;;;;;;;;;5087995;28;20059;-63
2021/04/07 09:39:15;;;;;;;4.40;2.88;;;;;;;;;;5069100;28;20060;-61
2021/04/07 09:41:44;;;;;;;3.75;2.92;;;;;;;;;;5062917;28;20021;-62
2021/04/07 09:44:11;;;;;;;4.65;3.00;;;;;;;;;;5063949;28;20055;-63
2021/04/07 09:46:38;;;;;;;4.50;3.17;;;;;;;;;;5066023;28;20040;-61
2021/04/07 09:49:06;;;;;;;3.38;2.67;;;;;;;;;;5065590;28;20111;-61
2021/04/07 09:51:35;;;;;;;4.72;3.00;;;;;;;;;;5062598;28;20032;-61
2021/04/07 09:54:21;;;;;;;4.82;2.75;;;;;;;;;;5063262;28;20035;-61
2021/04/07 09:56:47;;;;;;;5.43;3.08;;;;;;;;;;5061118;28;20067;-61
2021/04/07 09:59:13;;;;;;;4.68;2.70;;;;;;;;;;5065548;28;20043;-61
2021/04/07 10:01:40;;;;;;;4.93;3.40;;;;;;;;;;5087712;28;20498;-61
2021/04/07 10:04:06;;;;;;;5.32;2.97;;;;;;;;;;5062564;28;20052;-62
2021/04/07 10:06:33;;;;;;;4.45;2.90;;;;;;;;;;5062950;28;20025;-60
2021/04/07 10:09:03;;;;;;;3.65;2.60;;;;;;;;;;5064395;28;20051;-61
2021/04/07 10:11:29;;;;;;;6.65;2.75;;;;;;;;;;5065532;28;20131;-62
2021/04/07 10:13:57;;;;;;;4.03;2.88;;;;;;;;;;5066714;28;20431;-62
2021/04/07 10:16:24;;;;;;;3.67;2.92;;;;;;;;;;5067305;28;20082;-60
2021/04/07 10:18:50;;;;;;;4.25;2.70;;;;;;;;;;5059446;28;20036;-63
2021/04/07 10:21:20;;;;;;;3.92;2.53;;;17.70;47.50;;;;;;5066974;28;20031;-61
2021/04/07 10:23:47;;;;;;;5.43;2.92;;;18.10;47.90;;;;;;5067348;28;20082;-61
2021/04/07 10:26:16;;;;;;;4.78;2.60;;;18.30;47.40;;;;;;5065293;28;20098;-62
2021/04/07 10:29:03;;;;;;;4.07;2.65;;;18.60;54.70;;;;;;5064910;28;20077;-63
2021/04/07 10:31:29;;;;;;;4.68;2.67;;;18.80;46.90;;;;;;5064772;28;20079;-63
2021/04/07 10:34:11;;;;;;;5.63;2.28;;;18.90;46.60;;;;;;5062882;28;20444;-63
2021/04/07 10:36:39;;;;;;;3.72;2.65;;;19.00;46.20;;;;;;5065140;28;20037;-63
2021/04/07 10:39:16;;;;;;;5.22;2.47;;;19.00;46.00;;;;;;5067295;28;20045;-62
2021/04/07 10:41:46;;;;;;;6.25;2.80;;;19.10;49.20;;;;;;5069274;28;20036;-64
2021/04/07 10:44:27;;;;;;;4.45;3.17;;;19.00;56.10;;;;;;5066506;28;20020;-63
2021/04/07 10:46:53;;;;;;;3.78;2.72;;;18.90;46.10;;;;;;5099679;28;20505;-63
2021/04/07 10:49:21;;;;;;;5.72;3.05;;;19.10;46.70;;;;;;5066957;28;20075;-63
2021/04/07 10:52:06;;;;;;;3.60;2.90;;;19.50;47.00;;;;;;5067878;28;20033;-65
2021/04/07 10:54:33;;;;;;;4.22;2.70;;;20.00;46.70;;;;;;5068648;28;20058;-65
2021/04/07 10:57:10;;;;;;;3.10;2.60;;;20.30;46.20;;;;;;5069889;28;20082;-66
2021/04/07 10:59:37;;;;;;;3.63;2.67;;;20.60;45.70;;;;;;5068223;28;20115;-66
2021/04/07 11:02:16;;;;;;;4.50;2.75;;;20.70;45.20;;;;;;5077269;28;20028;-66
2021/04/07 11:04:42;;;;;;;2.80;2.45;;;20.60;44.50;;;;;;5070190;28;20021;-66
2021/04/07 11:07:12;;;;;;;3.20;2.33;;;20.60;44.50;;;;;;5070146;28;20040;-64
2021/04/07 11:09:46;;;;;;;3.50;2.47;;;20.40;51.10;;;;;;5070659;28;20056;-64
2021/04/07 11:12:13;;;;;;;5.60;2.45;;;20.10;46.50;;;;;;5064429;28;20071;-65
2021/04/07 11:14:41;;;;;;;3.30;2.60;;;;;;;;;;5063693;28;20158;-62
2021/04/07 11:17:07;;;;;;;3.63;2.50;;;;;;;;;;5065319;28;20406;-64
2021/04/07 11:19:37;;;;;;;5.57;2.28;;;;;;;;;;5067327;28;20155;-63
2021/04/07 11:22:04;;;;;;;4.55;2.30;;;;;;;;;;5069153;28;20024;-62
2021/04/07 11:24:30;;;;;;;4.95;2.25;;;19.20;76.90;;;;;;5067921;28;20028;-65
2021/04/07 11:26:57;;;;;;;3.42;2.30;;;19.10;45.10;;;;;;5066808;28;20390;-65
2021/04/07 11:29:22;;;;;;;4.45;2.33;;;19.30;45.40;;;;;;5068514;28;20036;-64
2021/04/07 11:31:51;;;;;;;3.08;2.30;;;19.40;45.30;;;;;;5070839;28;20024;-65
2021/04/07 11:34:21;;;;;;;4.65;2.30;;;19.50;45.10;;;;;;5090016;28;20028;-64
2021/04/07 11:36:55;;;;;;;4.78;2.33;;;19.60;44.90;;;;;;5070209;28;20055;-64
2021/04/07 11:44:28;;;;;;;6.40;3.30;;;19.60;44.50;;;;;;5069721;28;20035;-64
2021/04/07 11:46:54;;;;;;;3.42;2.00;;;19.50;44.40;;;;;;5065362;28;20103;-64
2021/04/07 11:49:21;;;;;;;5.47;2.40;;;19.60;44.50;;;;;;5064601;28;20032;-65
2021/04/07 11:51:47;;;;;;;5.90;2.00;;;19.60;44.40;;;;;;5067552;28;20036;-64
2021/04/07 11:54:14;;;;;;;4.63;2.20;;;19.60;44.30;;;;;;5065481;28;20036;-63
2021/04/07 11:56:47;;;;;;;2.92;2.00;;;;;;;;;;5065748;28;20028;-63
2021/04/07 11:59:14;;;;;;;4.40;2.25;;;;;;;;;;5056082;28;20037;-64
2021/04/07 12:01:41;;;;;;;4.75;2.92;;;;;;;;;;5064520;28;20036;-64
2021/04/07 12:04:07;;;;;;;3.28;2.40;;;;;;;;;;5072490;28;20555;-63
2021/04/07 12:06:33;;;;;;;3.70;2.17;;;;;;;;;;5068170;28;20020;-62
2021/04/07 12:08:59;;;;;;;2.80;2.00;;;;;;;;;;5067193;28;20032;-63
2021/04/07 12:11:26;;;;;;;5.22;2.25;;;;;;;;;;5066403;28;20047;-63
2021/04/07 12:13:53;;;;;;;3.55;2.30;;;;;;;;;;5066733;28;20036;-62
2021/04/07 12:16:20;;;;;;;2.97;2.03;;;;;;;;;;5067623;28;20111;-64
2021/04/07 12:18:46;;;;;;;2.55;2.10;;;;;;;;;;5066071;28;20035;-63
2021/04/07 12:21:13;;;;;;;3.03;1.90;;;;;;;;;;5065525;28;20024;-63
2021/04/07 12:23:39;;;;;;;5.15;2.22;;;;;;;;;;5067621;28;20501;-62
2021/04/07 12:26:05;;;;;;;3.63;2.00;;;;;;;;;;5062860;28;20391;-63
2021/04/07 12:28:31;;;;;;;4.68;2.10;;;;;;;;;;5064065;28;20371;-64
2021/04/07 12:30:58;;;;;;;4.00;2.30;;;;;;;;;;5066266;28;20064;-62
2021/04/07 12:33:28;;;;;;;5.05;2.25;;;;;;;;;;5065846;28;20406;-62
2021/04/07 12:35:55;;;;;;;3.40;2.00;;;;;;;;;;5066266;28;20029;-62
2021/04/07 12:38:21;;;;;;;2.58;2.00;;;;;;;;;;5064121;28;20045;-62
2021/04/07 12:40:52;;;;;;;3.15;2.13;;;;;;;;;;5064518;28;20523;-62
2021/04/07 12:43:18;;;;;;;3.65;2.20;;;;;;;;;;5067170;28;20441;-62
2021/04/07 12:45:44;;;;;;;3.60;2.10;;;;;;;;;;5065090;28;20372;-64
2021/04/07 12:48:10;;;;;;;2.85;2.10;;;;;;;;;;5068121;28;20422;-63
2021/04/07 12:50:37;;;;;;;4.05;2.00;;;;;;;;;;5067015;28;20684;-64
2021/04/07 12:53:04;;;;;;;2.63;2.10;;;;;;;;;;5067246;28;20414;-62
2021/04/07 12:55:33;;;;;;;3.53;1.90;;;;;;;;;;5069465;28;20033;-64
2021/04/07 12:57:59;;;;;;;7.57;2.30;;;;;;;;;;5063124;28;20097;-63
2021/04/07 13:00:26;;;;;;;2.75;2.05;;;;;;;;;;5062044;28;20028;-64
2021/04/07 13:02:52;;;;;;;2.72;2.10;;;;;;;;;;5064752;28;20037;-64
2021/04/07 13:05:19;;;;;;;4.07;2.22;;;;;;;;;;5064299;28;20060;-66
2021/04/07 13:07:45;;;;;;;5.38;2.35;;;;;;;;;;5064853;28;20173;-65
2021/04/07 13:10:12;;;;;;;3.88;2.03;;;;;;;;;;5062278;28;20024;-65
2021/04/07 13:12:38;;;;;;;3.47;2.25;;;;;;;;;;5062053;28;20581;-65
2021/04/07 13:15:04;;;;;;;4.10;2.20;;;;;;;;;;5065332;28;20043;-63
2021/04/07 13:17:30;;;;;;;5.97;2.63;;;;;;;;;;5065913;28;20139;-64
2021/04/07 13:19:57;;;;;;;5.72;2.40;;;;;;;;;;5062091;28;20033;-65
2021/04/07 13:22:23;;;;;;;5.03;2.20;;;;;;;;;;5066356;28;20112;-64
2021/04/07 13:24:50;;;;;;;3.45;2.00;;;;;;;;;;5063994;28;20498;-64
2021/04/07 13:27:16;;;;;;;3.13;2.33;;;;;;;;;;5079681;28;20678;-64
2021/04/07 13:29:42;;;;;;;4.97;2.90;;;;;;;;;;5079486;28;20090;-63
2021/04/07 13:32:09;;;;;;;3.17;2.20;;;;;;;;;;5065385;28;20056;-63
2021/04/07 13:45:14;;;;;;;4.75;2.13;;;;;;;;;;5063209;28;20043;-66
2021/04/07 13:47:44;;;;;;;2.28;2.00;;;;;;;;;;5071973;28;20103;-64
2021/04/07 13:50:11;;;;;;;2.45;1.90;;;;;;;;;;5067658;28;20033;-64
2021/04/07 13:52:37;;;;;;;3.00;2.00;;;;;;;;;;5064089;28;20048;-65
2021/04/07 13:55:03;;;;;;;4.20;2.40;;;;;;;;;;5066021;28;20036;-64
2021/04/07 13:57:30;;;;;;;2.60;1.92;;;;;;;;;;5065066;28;20032;-63
2021/04/07 13:59:57;;;;;;;3.35;2.03;;;;;;;;;;5067866;28;20036;-64
2021/04/07 14:02:24;;;;;;;3.30;2.17;;;;;;;;;;5063782;28;20032;-64
2021/04/07 14:04:50;;;;;;;2.17;1.80;;;;;;;;;;5060495;28;20070;-63
2021/04/07 14:07:16;;;;;;;3.20;1.95;;;;;;;;;;5058767;28;20081;-62
2021/04/07 14:09:47;;;;;;;3.53;2.10;;;;;;;;;;5064620;28;20029;-64
2021/04/07 14:12:15;;;;;;;3.13;1.80;;;;;;;;;;5069491;28;20059;-62
2021/04/07 14:14:41;;;;;;;2.90;2.10;;;;;;;;;;5060989;28;20035;-61
2021/04/07 14:17:07;;;;;;;3.00;2.50;;;;;;;;;;5070254;28;20334;-62
2021/04/07 14:19:33;;;;;;;2.83;1.92;;;;;;;;;;5070948;28;20116;-63
2021/04/07 14:22:00;;;;;;;4.82;2.47;;;;;;;;;;5073926;28;20039;-64
2021/04/07 14:24:26;;;;;;;2.33;2.05;;;;;;;;;;5074746;28;20077;-64
2021/04/07 14:26:52;;;;;;;3.15;2.25;;;;;;;;;;5068594;28;20028;-62
2021/04/07 14:29:18;;;;;;;2.78;2.03;;;;;;;;;;5068639;28;20461;-64
2021/04/07 14:31:47;;;;;;;2.78;2.33;;;;;;;;;;5069705;28;20029;-64
2021/04/07 14:34:14;;;;;;;4.00;2.20;;;;;;;;;;5070704;28;20486;-64
2021/04/07 14:36:40;;;;;;;3.97;2.20;;;;;;;;;;5084192;28;20574;-62
2021/04/07 14:39:06;;;;;;;3.83;2.40;;;;;;;;;;5071893;28;20043;-62
2021/04/07 14:41:33;;;;;;;3.00;2.13;;;;;;;;;;5075407;28;20032;-62
2021/04/07 14:43:59;;;;;;;3.70;2.28;;;;;;;;;;5067755;28;20490;-63
2021/04/07 14:46:26;;;;;;;2.70;2.00;;;;;;;;;;5071193;28;20096;-71
2021/04/07 14:48:53;;;;;;;3.47;2.35;;;;;;;;;;5070328;28;20046;-65